Logan, North Dakota
Current Conditions -  °F | °C
As of 9:54 AM on Tuesday 21 Oct 2014 (Local Time) from KMOT Reporting Station
Clear Clear  
Wind Chill: 52°   Ceiling: Unl
Heat Index: 52°   Visibility: 10mi
Dew Point: 38°   Wind: 7mph
Humidity: 59%   Direction: 120°ESE
Pressure: 29.79"   Gusts: NA
Location:  48.1414°N, 101.387°W
Report Text: KMOT 211454Z 12006KT 10SM CLR 11/03 A2979 RMK AO2 SLP093 T01110033 58010
Loading
Personal Weather Stations






























Interactive Weather Map
Tropical Storm Tracking
New forecast layout! Learn more

10-Day Weather Forecast

Advertisements
Track Severe Weather on mobile